Time;durP1;ratioP1;P1;durP2;ratioP2;P2;SDS_P1;SDS_P2;PMS_P1;PMS_P2;Temp;Humidity;BMP_temperature;BMP_pressure;BME280_temperature;BME280_humidity;BME280_pressure;Samples;Min_cycle;Max_cycle;Signal;HPM_P1;HPM_P2
2022/04/20 00:01:56;;;;;;;2.15;0.95;;;17.90;57.50;;;;;;10451870;28;20029;-48
2022/04/20 00:06:57;;;;;;;2.15;1.35;;;17.90;57.50;;;;;;10453522;28;20111;-49
2022/04/20 00:11:58;;;;;;;2.72;1.15;;;17.80;57.40;;;;;;10453184;28;20064;-48
2022/04/20 00:16:59;;;;;;;2.72;1.17;;;17.90;57.50;;;;;;10452644;28;20040;-48
2022/04/20 00:21:59;;;;;;;3.25;1.10;;;17.80;57.40;;;;;;10462372;28;20053;-51
2022/04/20 00:27:00;;;;;;;3.10;1.08;;;17.80;57.40;;;;;;10460928;28;20478;-51
2022/04/20 00:32:01;;;;;;;2.60;1.15;;;17.80;57.30;;;;;;10460321;28;20051;-49
2022/04/20 00:37:02;;;;;;;1.50;0.93;;;17.80;57.40;;;;;;10460311;28;20067;-51
2022/04/20 00:42:04;;;;;;;1.73;0.90;;;17.80;57.30;;;;;;10459911;28;20059;-49
2022/04/20 00:47:06;;;;;;;2.95;1.27;;;17.80;57.40;;;;;;10460133;28;20025;-49
2022/04/20 00:52:07;;;;;;;3.08;1.30;;;17.80;57.30;;;;;;10458281;28;20043;-50
2022/04/20 00:57:08;;;;;;;2.28;1.42;;;17.70;57.20;;;;;;10459506;28;20064;-49
2022/04/20 01:02:09;;;;;;;2.42;1.55;;;17.80;57.40;;;;;;10459109;28;20029;-49
2022/04/20 01:07:11;;;;;;;2.55;1.60;;;17.80;57.40;;;;;;10458019;28;20023;-48
2022/04/20 01:12:14;;;;;;;1.90;1.00;;;17.80;57.40;;;;;;10458913;28;20039;-49
2022/04/20 01:17:15;;;;;;;1.90;1.35;;;17.80;57.30;;;;;;10457256;28;20124;-49
2022/04/20 01:22:16;;;;;;;2.50;1.20;;;17.70;57.20;;;;;;10458906;28;20033;-49
2022/04/20 01:27:17;;;;;;;2.10;1.45;;;17.70;57.20;;;;;;10458492;28;20074;-50
2022/04/20 01:32:17;;;;;;;2.00;1.30;;;17.70;57.30;;;;;;10456871;28;20077;-48
2022/04/20 01:37:18;;;;;;;1.92;1.20;;;17.70;57.30;;;;;;10456597;28;20079;-49
2022/04/20 01:42:19;;;;;;;2.13;1.38;;;17.70;57.20;;;;;;10455892;28;20021;-49
2022/04/20 01:47:20;;;;;;;1.83;0.90;;;17.60;57.10;;;;;;10457691;28;20067;-48
2022/04/20 01:52:20;;;;;;;2.00;1.35;;;17.70;57.20;;;;;;10457144;28;20100;-49
2022/04/20 01:57:21;;;;;;;2.13;1.00;;;17.60;57.80;;;;;;10457314;28;20488;-48
2022/04/20 02:02:40;;;;;;;2.85;1.20;;;17.60;57.20;;;;;;10472019;28;20068;-48
2022/04/20 02:07:41;;;;;;;2.25;1.50;;;17.60;57.20;;;;;;10457103;28;20031;-48
2022/04/20 02:12:42;;;;;;;2.42;1.67;;;17.60;57.10;;;;;;10456398;28;20029;-46
2022/04/20 02:17:42;;;;;;;2.33;1.33;;;17.60;57.10;;;;;;10456419;28;20120;-48
2022/04/20 02:22:43;;;;;;;2.60;1.63;;;17.60;57.10;;;;;;10455926;28;20555;-49
2022/04/20 02:27:44;;;;;;;1.60;0.90;;;17.60;57.20;;;;;;10456243;28;20465;-50
2022/04/20 02:32:44;;;;;;;2.08;1.38;;;17.60;57.20;;;;;;10454381;28;20132;-48
2022/04/20 02:37:45;;;;;;;2.40;1.40;;;17.60;57.20;;;;;;10455833;28;20163;-50
2022/04/20 02:42:47;;;;;;;1.52;1.00;;;17.50;57.20;;;;;;10454666;28;20029;-47
2022/04/20 02:47:48;;;;;;;3.15;1.50;;;17.60;57.20;;;;;;10454151;28;20108;-50
2022/04/20 02:52:49;;;;;;;1.60;1.00;;;17.50;57.10;;;;;;10455355;28;20037;-47
2022/04/20 02:57:50;;;;;;;3.28;1.65;;;17.50;57.00;;;;;;10455233;28;20114;-49
2022/04/20 03:02:51;;;;;;;3.17;1.63;;;17.50;57.00;;;;;;10454099;28;20025;-48
2022/04/20 03:07:51;;;;;;;2.33;1.30;;;17.50;57.00;;;;;;10454930;28;20052;-49
2022/04/20 03:12:52;;;;;;;3.25;1.60;;;17.50;56.90;;;;;;10454540;28;20041;-51
2022/04/20 03:17:53;;;;;;;2.22;1.60;;;17.50;56.90;;;;;;10454505;28;20400;-48
2022/04/20 03:22:54;;;;;;;2.33;1.50;;;17.50;56.90;;;;;;10461841;28;20045;-50
2022/04/20 03:27:54;;;;;;;1.70;1.25;;;17.40;56.80;;;;;;10454242;28;20492;-49
2022/04/20 03:32:55;;;;;;;2.22;1.30;;;17.40;56.80;;;;;;10453772;28;20140;-50
2022/04/20 03:37:56;;;;;;;2.53;1.58;;;17.40;56.90;;;;;;10454201;28;20048;-49
2022/04/20 03:42:57;;;;;;;1.92;1.35;;;17.40;56.80;;;;;;10453494;28;20029;-50
2022/04/20 03:47:58;;;;;;;3.13;1.20;;;17.40;56.90;;;;;;10454055;28;20035;-50
2022/04/20 03:52:58;;;;;;;1.83;1.10;;;17.40;56.80;;;;;;10456880;28;20091;-49
2022/04/20 03:57:59;;;;;;;1.95;1.23;;;17.40;56.70;;;;;;10462040;28;20124;-49
2022/04/20 04:03:00;;;;;;;1.85;1.17;;;17.40;56.80;;;;;;10461457;28;20515;-49
2022/04/20 04:08:00;;;;;;;2.33;1.45;;;17.40;56.70;;;;;;10461729;28;20036;-50
2022/04/20 04:13:01;;;;;;;1.65;1.02;;;17.40;56.70;;;;;;10461240;28;20029;-49
2022/04/20 04:18:04;;;;;;;1.55;0.82;;;17.40;56.60;;;;;;10461349;28;20107;-49
2022/04/20 04:23:06;;;;;;;2.75;1.20;;;17.30;56.60;;;;;;10467006;28;20037;-50
2022/04/20 04:28:07;;;;;;;3.20;1.63;;;17.30;56.70;;;;;;10457321;28;20033;-49
2022/04/20 04:33:07;;;;;;;2.72;1.25;;;17.30;56.70;;;;;;10459401;28;20537;-48
2022/04/20 04:38:08;;;;;;;1.52;0.95;;;17.30;56.70;;;;;;10459439;28;20064;-48
2022/04/20 04:43:09;;;;;;;1.60;1.35;;;17.30;56.60;;;;;;10459097;28;20492;-49
2022/04/20 04:53:29;;;;;;;1.90;1.20;;;17.30;56.60;;;;;;10473444;28;20032;-47
2022/04/20 04:58:30;;;;;;;4.30;1.25;;;17.30;56.80;;;;;;10467340;28;20055;-51
2022/04/20 05:03:31;;;;;;;4.50;1.40;;;17.40;57.60;;;;;;10467222;28;20041;-50
2022/04/20 05:08:31;;;;;;;5.22;1.42;;;17.50;58.20;;;;;;10459329;28;20456;-49
2022/04/20 05:13:32;;;;;;;11.43;2.20;;;17.50;57.60;;;;;;10444459;28;20478;-48
2022/04/20 05:18:33;;;;;;;4.63;1.77;;;17.60;57.80;;;;;;10459779;28;20117;-46
2022/04/20 05:23:33;;;;;;;11.32;2.20;;;17.60;58.00;;;;;;10473847;28;20044;-49
2022/04/20 05:28:34;;;;;;;6.53;1.75;;;17.60;58.90;;;;;;10458583;28;20455;-48
2022/04/20 05:33:35;;;;;;;10.05;2.10;;;17.60;58.40;;;;;;10452748;28;20131;-48
2022/04/20 05:43:54;;;;;;;13.20;2.42;;;17.50;58.80;;;;;;10465796;28;20036;-48
2022/04/20 05:48:55;;;;;;;11.15;3.55;;;17.50;59.20;;;;;;10473180;28;20067;-47
2022/04/20 05:53:56;;;;;;;9.73;3.35;;;17.50;59.20;;;;;;10469397;28;20060;-51
2022/04/20 05:58:57;;;;;;;14.77;2.78;;;17.50;59.10;;;;;;10462091;28;20482;-48
2022/04/20 06:03:58;;;;;;;14.50;2.42;;;17.50;59.50;;;;;;10456079;28;20064;-52
2022/04/20 06:09:00;;;;;;;10.18;3.78;;;17.50;59.70;;;;;;10453429;28;20460;-48
2022/04/20 06:14:00;;;;;;;9.30;2.40;;;17.50;59.50;;;;;;10455558;28;20040;-49
2022/04/20 06:19:01;;;;;;;12.52;2.45;;;17.50;59.20;;;;;;10455915;28;20029;-49
2022/04/20 06:24:02;;;;;;;12.13;3.45;;;17.50;59.00;;;;;;10470100;28;20051;-51
2022/04/20 06:29:02;;;;;;;11.30;2.80;;;17.50;59.00;;;;;;10460644;28;20052;-48
2022/04/20 06:34:04;;;;;;;12.50;2.60;;;17.40;59.00;;;;;;10470878;28;20363;-53
2022/04/20 06:39:05;;;;;;;10.15;3.08;;;17.40;59.00;;;;;;10455635;28;20025;-51
2022/04/20 06:44:06;;;;;;;9.32;3.42;;;17.40;58.50;;;;;;10454210;28;20078;-50
2022/04/20 06:49:07;;;;;;;10.70;2.53;;;17.40;58.40;;;;;;10455187;28;20439;-50
2022/04/20 06:59:26;;;;;;;12.73;3.37;;;17.40;58.60;;;;;;10441397;28;20270;-48
2022/04/20 07:04:27;;;;;;;9.52;2.03;;;17.40;58.60;;;;;;10457780;28;20037;-52
2022/04/20 07:09:28;;;;;;;7.28;2.45;;;17.40;58.70;;;;;;10454554;28;20113;-50
2022/04/20 07:14:28;;;;;;;6.80;2.55;;;17.40;58.40;;;;;;10465089;28;20388;-48
2022/04/20 07:19:29;;;;;;;7.80;1.92;;;17.40;58.50;;;;;;10453300;28;20121;-49
2022/04/20 07:24:31;;;;;;;11.48;2.60;;;17.40;58.40;;;;;;10458802;28;20056;-49
2022/04/20 07:29:31;;;;;;;14.20;2.90;;;17.40;58.50;;;;;;10452864;28;20052;-48
2022/04/20 07:34:32;;;;;;;5.80;2.03;;;17.40;58.40;;;;;;10453681;28;20069;-55
2022/04/20 07:39:33;;;;;;;7.95;2.47;;;17.40;58.60;;;;;;10451557;28;20064;-53
2022/04/20 07:44:33;;;;;;;9.98;2.40;;;17.30;58.50;;;;;;10452002;28;20501;-51
2022/04/20 07:54:53;;;;;;;8.10;2.72;;;17.40;58.70;;;;;;10452236;28;20040;-51
2022/04/20 07:59:54;;;;;;;10.07;2.20;;;17.40;58.60;;;;;;10459666;28;20116;-50
2022/04/20 08:04:54;;;;;;;6.55;1.60;;;17.40;58.60;;;;;;10451071;28;20033;-49
2022/04/20 08:09:55;;;;;;;7.00;2.28;;;17.40;58.50;;;;;;10449795;28;20560;-51
2022/04/20 08:14:56;;;;;;;8.95;2.63;;;17.50;58.50;;;;;;10457237;28;20118;-50
2022/04/20 08:19:57;;;;;;;18.27;3.08;;;17.50;58.60;;;;;;10451564;28;20069;-48
2022/04/20 08:24:57;;;;;;;7.15;1.80;;;17.50;58.60;;;;;;10449617;28;20408;-51
2022/04/20 08:29:58;;;;;;;8.25;1.88;;;17.50;58.60;;;;;;10459762;28;20049;-51
2022/04/20 08:34:59;;;;;;;5.90;1.90;;;17.50;58.50;;;;;;10452969;28;20112;-48
2022/04/20 08:40:00;;;;;;;6.30;1.55;;;17.50;58.50;;;;;;10456609;28;20037;-50
2022/04/20 08:45:05;;;;;;;6.18;1.30;;;17.50;58.50;;;;;;10460441;28;20028;-52
2022/04/20 08:50:08;;;;;;;4.45;1.88;;;17.50;58.40;;;;;;10459100;28;20037;-49
2022/04/20 08:55:15;;;;;;;3.67;1.40;;;17.50;58.40;;;;;;10456822;28;20044;-49
2022/04/20 09:00:22;;;;;;;5.72;1.85;;;17.50;58.30;;;;;;10459881;28;20020;-49
2022/04/20 09:05:25;;;;;;;2.03;1.10;;;17.50;58.30;;;;;;10447540;28;20033;-46
2022/04/20 09:10:26;;;;;;;10.82;2.85;;;17.60;58.30;;;;;;10458002;28;20036;-47
2022/04/20 09:15:32;;;;;;;4.07;1.20;;;17.60;58.20;;;;;;10458783;28;20033;-48
2022/04/20 09:20:34;;;;;;;4.32;1.77;;;17.60;57.60;;;;;;10458721;28;20040;-49
2022/04/20 09:25:39;;;;;;;3.08;1.65;;;17.60;57.60;;;;;;10466568;28;20388;-48
2022/04/20 09:30:42;;;;;;;3.97;1.55;;;17.60;57.60;;;;;;10458046;28;20478;-48
2022/04/20 09:35:49;;;;;;;3.30;1.45;;;17.60;57.30;;;;;;10474344;28;20094;-50
2022/04/20 09:40:49;;;;;;;5.68;2.20;;;17.60;56.90;;;;;;10457698;28;20047;-49
2022/04/20 09:51:40;;;;;;;2.78;1.30;;;17.70;56.90;;;;;;10457571;28;20044;-49
2022/04/20 09:56:41;;;;;;;2.33;1.27;;;17.70;56.90;;;;;;10457465;28;20029;-49
2022/04/20 10:01:47;;;;;;;4.03;1.20;;;17.70;57.00;;;;;;10456964;28;20481;-52
2022/04/20 10:06:48;;;;;;;5.82;1.90;;;17.70;56.70;;;;;;10446931;28;20029;-48
2022/04/20 10:11:50;;;;;;;2.80;1.50;;;17.70;56.70;;;;;;10454044;28;20060;-50
2022/04/20 10:16:52;;;;;;;2.53;0.88;;;17.80;57.00;;;;;;10454241;28;20048;-49
2022/04/20 10:21:54;;;;;;;3.47;1.60;;;17.80;56.90;;;;;;10458378;28;20041;-50
2022/04/20 10:27:03;;;;;;;2.80;1.35;;;17.80;56.90;;;;;;10452136;28;20127;-49
2022/04/20 10:32:12;;;;;;;2.90;1.10;;;17.90;56.90;;;;;;10439762;28;20053;-50
2022/04/20 10:37:22;;;;;;;2.67;1.45;;;17.90;56.90;;;;;;10446879;28;20033;-48
2022/04/20 10:42:23;;;;;;;2.03;1.40;;;17.90;56.50;;;;;;10459966;28;20119;-53
2022/04/20 10:47:36;;;;;;;3.67;1.98;;;17.90;56.60;;;;;;10455417;28;20384;-55
2022/04/20 10:52:39;;;;;;;2.53;1.25;;;18.00;55.90;;;;;;10455082;28;20125;-53
2022/04/20 10:57:43;;;;;;;3.65;1.65;;;18.00;55.90;;;;;;10455144;28;20036;-54
2022/04/20 11:02:54;;;;;;;2.63;1.35;;;18.00;55.90;;;;;;10453019;28;20421;-53
2022/04/20 11:08:17;;;;;;;2.67;1.58;;;18.00;55.70;;;;;;10447827;28;20033;-53
2022/04/20 11:19:07;;;;;;;3.08;1.02;;;18.10;55.40;;;;;;10465139;28;20041;-53
2022/04/20 11:24:11;;;;;;;3.88;1.20;;;18.10;55.30;;;;;;10458080;28;20044;-51
2022/04/20 11:29:17;;;;;;;3.85;1.50;;;18.10;55.50;;;;;;10449501;28;20037;-52
2022/04/20 11:34:22;;;;;;;2.60;1.38;;;18.10;55.50;;;;;;10453461;28;20036;-52
2022/04/20 11:39:25;;;;;;;3.80;1.20;;;18.20;55.30;;;;;;10453995;28;20121;-54
2022/04/20 11:44:29;;;;;;;3.85;1.42;;;18.20;55.30;;;;;;10444128;28;20040;-56
2022/04/20 11:49:42;;;;;;;6.80;1.38;;;18.20;55.20;;;;;;10458105;28;20040;-55
2022/04/20 11:54:47;;;;;;;5.97;1.35;;;18.30;55.30;;;;;;10447319;28;20111;-54
2022/04/20 11:59:50;;;;;;;2.30;1.10;;;18.30;55.40;;;;;;10452221;28;20040;-54
2022/04/20 12:05:09;;;;;;;3.25;1.02;;;18.30;55.50;;;;;;10452016;28;20041;-53
2022/04/20 12:10:10;;;;;;;3.45;1.63;;;18.30;55.60;;;;;;10450322;28;20025;-55
2022/04/20 12:15:12;;;;;;;2.35;1.05;;;18.40;55.70;;;;;;10471842;28;20563;-55
2022/04/20 12:20:13;;;;;;;2.60;1.00;;;18.40;55.90;;;;;;10460198;28;20033;-53
2022/04/20 12:25:19;;;;;;;3.10;1.17;;;18.40;56.00;;;;;;10468088;28;20087;-54
2022/04/20 12:30:35;;;;;;;4.53;1.25;;;18.40;56.10;;;;;;10460397;28;20453;-56
2022/04/20 12:35:37;;;;;;;1.48;0.90;;;18.50;56.20;;;;;;10460421;28;20587;-54
2022/04/20 12:40:38;;;;;;;2.45;0.80;;;18.50;56.20;;;;;;10459961;28;20133;-54
2022/04/20 12:45:38;;;;;;;1.90;0.82;;;18.50;56.20;;;;;;10460463;28;20090;-53
2022/04/20 12:50:43;;;;;;;3.53;0.80;;;18.50;56.40;;;;;;10473447;28;20110;-54
2022/04/20 13:02:01;;;;;;;2.17;1.00;;;18.50;56.40;;;;;;10459568;28;20779;-53
2022/04/20 13:06:44;;;;;;;2.25;1.27;;;18.60;56.30;;;;;;10459862;28;20045;-55
2022/04/20 13:11:45;;;;;;;1.70;0.90;;;18.70;56.40;;;;;;10457778;28;20029;-55
2022/04/20 13:16:46;;;;;;;5.43;1.38;;;18.70;56.50;;;;;;10445918;28;20132;-55
2022/04/20 13:21:47;;;;;;;1.52;0.85;;;18.70;56.50;;;;;;10455279;28;20128;-53
2022/04/20 13:32:06;;;;;;;5.00;1.30;;;18.70;56.30;;;;;;10447965;28;20080;-54
2022/04/20 13:37:07;;;;;;;3.13;0.77;;;18.70;56.20;;;;;;10457601;28;20287;-52
2022/04/20 13:42:08;;;;;;;1.60;1.00;;;18.70;56.00;;;;;;10456831;28;20533;-51
2022/04/20 13:47:08;;;;;;;1.65;0.98;;;18.70;55.80;;;;;;10457162;28;20021;-55
2022/04/20 13:52:09;;;;;;;3.95;1.15;;;18.70;55.80;;;;;;10457740;28;20107;-54
2022/04/20 13:57:10;;;;;;;3.05;1.30;;;18.70;55.50;;;;;;10456500;28;20029;-55
2022/04/20 14:02:11;;;;;;;4.65;1.00;;;18.70;55.30;;;;;;10456180;28;20037;-51
2022/04/20 14:07:12;;;;;;;2.17;1.00;;;18.70;55.40;;;;;;10456871;28;20029;-51
2022/04/20 14:12:18;;;;;;;3.38;1.63;;;18.80;55.40;;;;;;10455485;28;20033;-51
2022/04/20 14:17:19;;;;;;;5.32;2.30;;;18.80;55.30;;;;;;10456513;28;20056;-51
2022/04/20 14:22:19;;;;;;;4.28;2.25;;;18.90;55.60;;;;;;10464251;28;20065;-51
2022/04/20 14:32:39;;;;;;;10.10;5.17;;;18.90;57.50;;;;;;10455132;28;20053;-58
2022/04/20 14:37:40;;;;;;;11.60;6.70;;;18.80;57.50;;;;;;10454526;28;20369;-58
2022/04/20 14:42:41;;;;;;;8.25;4.78;;;18.80;58.00;;;;;;10454650;28;20029;-62
2022/04/20 14:47:41;;;;;;;7.07;3.67;;;18.80;57.90;;;;;;10455562;28;20103;-59
2022/04/20 14:52:43;;;;;;;11.30;4.93;;;18.80;57.70;;;;;;10453884;28;20086;-59
2022/04/20 14:57:44;;;;;;;6.82;3.85;;;18.80;57.60;;;;;;10453857;28;20039;-59
2022/04/20 15:02:49;;;;;;;6.38;3.60;;;18.80;57.70;;;;;;10454624;28;20067;-58
2022/04/20 15:07:51;;;;;;;8.05;3.63;;;18.80;57.70;;;;;;10445399;28;20036;-58
2022/04/20 15:12:52;;;;;;;6.05;4.05;;;18.70;57.60;;;;;;10454578;28;20029;-59
2022/04/20 15:17:54;;;;;;;5.03;2.72;;;18.70;57.70;;;;;;10454751;28;20025;-59
2022/04/20 15:22:55;;;;;;;5.90;2.95;;;18.70;57.70;;;;;;10462671;28;20029;-59
2022/04/20 15:27:56;;;;;;;6.00;2.78;;;18.70;57.60;;;;;;10454380;28;20466;-59
2022/04/20 15:32:57;;;;;;;4.78;2.42;;;18.70;57.60;;;;;;10454101;28;20076;-59
2022/04/20 15:37:57;;;;;;;4.40;2.40;;;18.70;57.60;;;;;;10453880;28;20410;-58
2022/04/20 15:43:03;;;;;;;2.95;1.75;;;18.70;57.70;;;;;;10453929;28;20040;-59
2022/04/20 15:48:05;;;;;;;6.20;3.03;;;18.70;57.70;;;;;;10456486;28;20469;-58
2022/04/20 15:53:06;;;;;;;3.63;1.70;;;18.70;57.70;;;;;;10462340;28;20025;-59
2022/04/20 16:03:26;;;;;;;4.10;1.90;;;18.70;57.80;;;;;;10461868;28;20037;-59
2022/04/20 16:08:27;;;;;;;4.80;2.40;;;18.70;57.80;;;;;;10461720;28;20104;-59
2022/04/20 16:13:29;;;;;;;2.63;1.42;;;18.60;57.70;;;;;;10461720;28;20064;-58
2022/04/20 16:18:32;;;;;;;2.85;1.40;;;18.60;57.70;;;;;;10460424;28;20510;-59
2022/04/20 16:23:34;;;;;;;5.18;1.80;;;18.60;57.70;;;;;;10469246;28;20044;-58
2022/04/20 16:28:35;;;;;;;3.90;1.45;;;18.60;57.70;;;;;;10458627;28;20384;-57
2022/04/20 16:33:36;;;;;;;9.15;2.50;;;18.60;57.60;;;;;;10460927;28;20057;-57
2022/04/20 16:38:38;;;;;;;11.60;3.03;;;18.80;60.00;;;;;;10460649;28;20110;-57
2022/04/20 16:43:38;;;;;;;3.30;1.95;;;19.00;59.90;;;;;;10460467;28;20048;-56
2022/04/20 16:48:39;;;;;;;4.70;1.98;;;18.90;60.20;;;;;;10460090;28;20422;-58
2022/04/20 16:53:42;;;;;;;3.58;1.58;;;19.00;61.00;;;;;;10455083;28;20609;-57
2022/04/20 16:58:43;;;;;;;12.65;2.22;;;18.90;59.60;;;;;;10458520;28;20037;-57
2022/04/20 17:03:43;;;;;;;10.10;2.47;;;18.80;60.00;;;;;;10459680;28;20053;-57
2022/04/20 17:08:44;;;;;;;15.40;2.35;;;18.80;60.40;;;;;;10459332;28;20057;-57
2022/04/20 17:13:46;;;;;;;11.15;2.67;;;18.80;60.70;;;;;;10459400;28;20028;-57
2022/04/20 17:18:46;;;;;;;9.75;2.30;;;18.80;60.80;;;;;;10458764;28;20232;-58
2022/04/20 17:29:09;;;;;;;11.20;2.00;;;18.70;60.20;;;;;;10458352;28;20052;-58
2022/04/20 17:34:10;;;;;;;6.63;2.13;;;18.80;60.10;;;;;;10458490;28;20377;-58
2022/04/20 17:39:13;;;;;;;7.07;2.33;;;18.70;59.80;;;;;;10457946;28;20041;-58
2022/04/20 17:44:15;;;;;;;9.88;1.85;;;18.70;59.90;;;;;;10457594;28;20029;-60
2022/04/20 17:49:16;;;;;;;11.80;1.70;;;18.60;60.00;;;;;;10468233;28;20036;-58
2022/04/20 17:54:17;;;;;;;10.95;2.33;;;18.60;59.30;;;;;;10456154;28;20045;-58
2022/04/20 17:59:18;;;;;;;6.60;2.10;;;18.60;59.30;;;;;;10456268;28;20075;-57
2022/04/20 18:04:20;;;;;;;3.83;1.20;;;18.70;59.40;;;;;;10453444;28;20515;-56
2022/04/20 18:09:21;;;;;;;5.00;1.63;;;18.70;59.40;;;;;;10449853;28;20508;-58
2022/04/20 18:14:21;;;;;;;4.45;2.33;;;18.60;58.90;;;;;;10454183;28;20116;-58
2022/04/20 18:19:22;;;;;;;3.88;1.92;;;18.50;59.00;;;;;;10440369;28;20124;-58
2022/04/20 18:24:23;;;;;;;6.30;2.72;;;18.50;59.00;;;;;;10436986;28;20467;-58
2022/04/20 18:29:23;;;;;;;8.10;1.65;;;18.50;59.10;;;;;;10452062;28;20052;-59
2022/04/20 18:34:24;;;;;;;10.45;2.65;;;18.50;59.00;;;;;;10455012;28;20075;-59
2022/04/20 18:39:24;;;;;;;4.85;1.60;;;18.50;58.90;;;;;;10454633;28;20037;-57
2022/04/20 18:44:25;;;;;;;4.18;1.60;;;18.50;58.90;;;;;;10446989;28;20504;-57
2022/04/20 18:49:26;;;;;;;6.10;1.45;;;18.50;58.90;;;;;;10454872;28;20031;-58
2022/04/20 18:59:46;;;;;;;7.07;1.93;;;18.50;59.00;;;;;;10454818;28;20072;-58
2022/04/20 19:04:49;;;;;;;6.97;1.80;;;18.50;59.40;;;;;;10454738;28;20029;-57
2022/04/20 19:09:53;;;;;;;9.15;1.75;;;18.50;58.90;;;;;;10453280;28;20029;-58
2022/04/20 19:14:53;;;;;;;3.90;1.60;;;18.50;59.20;;;;;;10450607;28;20025;-57
2022/04/20 19:19:54;;;;;;;4.90;1.08;;;18.50;59.60;;;;;;10453694;28;20388;-55
2022/04/20 19:24:55;;;;;;;3.30;1.45;;;18.50;59.00;;;;;;10465006;28;20074;-61
2022/04/20 19:29:56;;;;;;;2.75;1.05;;;18.50;58.90;;;;;;10447627;28;20053;-60
2022/04/20 19:35:00;;;;;;;5.75;1.52;;;18.50;59.10;;;;;;10453479;28;20125;-60
2022/04/20 19:40:01;;;;;;;7.90;1.58;;;18.50;59.10;;;;;;10450007;28;20036;-59
2022/04/20 19:45:02;;;;;;;4.05;1.50;;;18.50;59.20;;;;;;10452009;28;20534;-60
2022/04/20 19:50:03;;;;;;;4.30;1.00;;;18.50;59.10;;;;;;10450521;28;20025;-61
2022/04/20 19:55:04;;;;;;;4.13;1.05;;;18.40;59.20;;;;;;10451085;28;20029;-60
2022/04/20 20:00:06;;;;;;;5.13;1.67;;;18.40;59.20;;;;;;10450614;28;20431;-59
2022/04/20 20:05:07;;;;;;;4.88;1.77;;;18.50;59.20;;;;;;10450621;28;20424;-60
2022/04/20 20:10:09;;;;;;;6.60;1.65;;;18.40;59.00;;;;;;10452150;28;20120;-60
2022/04/20 20:15:10;;;;;;;6.18;1.92;;;18.40;58.90;;;;;;10452850;28;20090;-59
2022/04/20 20:20:11;;;;;;;6.32;0.90;;;18.40;58.80;;;;;;10451278;28;20071;-56
2022/04/20 20:30:31;;;;;;;2.85;1.13;;;18.40;58.80;;;;;;10452068;28;20048;-60
2022/04/20 20:35:34;;;;;;;3.17;1.17;;;18.40;58.60;;;;;;10456727;28;20061;-60
2022/04/20 20:40:35;;;;;;;3.13;1.63;;;18.40;58.70;;;;;;10459194;28;20021;-61
2022/04/20 20:45:35;;;;;;;1.90;1.02;;;18.40;58.60;;;;;;10458678;28;20396;-60
2022/04/20 20:50:36;;;;;;;2.30;1.05;;;18.40;58.50;;;;;;10459363;28;20056;-61
2022/04/20 20:55:36;;;;;;;3.42;1.05;;;18.40;58.60;;;;;;10459583;28;20076;-60
2022/04/20 21:00:37;;;;;;;1.40;1.02;;;18.40;58.60;;;;;;10459180;28;20063;-60
2022/04/20 21:05:38;;;;;;;3.00;1.30;;;18.30;58.50;;;;;;10457869;28;20072;-60
2022/04/20 21:10:38;;;;;;;3.85;1.30;;;18.30;58.50;;;;;;10459009;28;20480;-59
2022/04/20 21:15:39;;;;;;;3.00;1.08;;;18.30;58.50;;;;;;10457701;28;20067;-58
2022/04/20 21:20:41;;;;;;;1.75;1.00;;;18.30;58.50;;;;;;10457280;28;20059;-58
2022/04/20 21:25:42;;;;;;;1.80;1.10;;;18.30;58.40;;;;;;10473743;28;20029;-59
2022/04/20 21:30:42;;;;;;;1.13;0.80;;;18.30;58.30;;;;;;10456782;28;20394;-59
2022/04/20 21:35:43;;;;;;;3.05;1.23;;;18.30;58.20;;;;;;10458179;28;20044;-59
2022/04/20 21:40:57;;;;;;;3.08;1.00;;;18.30;58.20;;;;;;10457370;28;20107;-60
2022/04/20 21:45:59;;;;;;;3.00;0.90;;;18.30;58.20;;;;;;10454876;28;20464;-59
2022/04/20 21:51:00;;;;;;;1.73;0.85;;;18.30;58.20;;;;;;10457302;28;20033;-59
2022/04/20 21:56:01;;;;;;;2.50;1.30;;;18.30;58.20;;;;;;10457376;28;20028;-59
2022/04/20 22:01:05;;;;;;;3.33;1.38;;;18.20;58.00;;;;;;10456502;28;20685;-59
2022/04/20 22:16:51;;;;;;;3.55;1.05;;;18.20;58.10;;;;;;10456771;28;20037;-59
2022/04/20 22:21:54;;;;;;;2.80;1.15;;;18.20;58.00;;;;;;10465117;28;20028;-59
2022/04/20 22:26:57;;;;;;;2.65;1.25;;;18.20;58.10;;;;;;10456014;28;20416;-59
2022/04/20 22:31:59;;;;;;;2.83;1.10;;;18.20;58.20;;;;;;10455878;28;20072;-59
2022/04/20 22:36:59;;;;;;;2.22;1.20;;;18.20;58.10;;;;;;10455255;28;20025;-57
2022/04/20 22:42:00;;;;;;;2.88;1.15;;;18.20;58.10;;;;;;10455526;28;20057;-59
2022/04/20 22:47:01;;;;;;;1.85;0.95;;;18.10;58.00;;;;;;10455268;28;20139;-59
2022/04/20 22:52:02;;;;;;;2.05;1.20;;;18.10;58.00;;;;;;10454473;28;20152;-59
2022/04/20 22:57:03;;;;;;;2.97;1.33;;;18.10;57.90;;;;;;10453110;28;20115;-59
2022/04/20 23:02:04;;;;;;;1.75;1.38;;;18.10;57.80;;;;;;10454396;28;20412;-59
2022/04/20 23:07:05;;;;;;;2.13;1.05;;;18.10;57.80;;;;;;10454753;28;20059;-59
2022/04/20 23:12:06;;;;;;;1.77;0.90;;;18.10;57.80;;;;;;10454442;28;20477;-58
2022/04/20 23:17:09;;;;;;;1.77;1.10;;;18.10;57.80;;;;;;10453405;28;20037;-59
2022/04/20 23:22:11;;;;;;;3.60;1.05;;;18.10;57.80;;;;;;10455633;28;20369;-59
2022/04/20 23:32:31;;;;;;;4.03;1.58;;;18.10;57.60;;;;;;10454311;28;20045;-58
2022/04/20 23:37:32;;;;;;;1.55;1.05;;;18.10;57.70;;;;;;10452979;28;20025;-58
2022/04/20 23:42:33;;;;;;;2.10;1.38;;;18.10;57.80;;;;;;10453433;28;20466;-59
2022/04/20 23:47:34;;;;;;;3.78;1.20;;;18.00;57.80;;;;;;10453408;28;20036;-59
2022/04/20 23:52:35;;;;;;;2.28;1.13;;;18.00;57.80;;;;;;10440327;28;20392;-58
2022/04/20 23:57:35;;;;;;;3.33;1.02;;;18.00;57.80;;;;;;10453555;28;20040;-59
